Terminal Aerodrome Forecast
Issued by NWS Denver/Boulder, CO

Home | Current Version | Previous Version | Text Only | Print | Product List | Glossary On
Versions: 1 2 3 4 5 6 7 8 9 10 11 12 13 14 15 16 17 18 19 20 21 22 23 24 25 26 27 28 29 30 31 32 33 34 35 36 37 38 39 40 41 42 43 44 45 46 47 48 49 50
000
FTUS45 KBOU 281141
TAFDEN
TAF
KDEN 281141Z 2812/0118 26005KT P6SM SKC
     FM281300 28005KT P6SM FEW005 SCT100
     FM281400 29006KT P6SM VCFG BKN005
     FM281600 31005KT P6SM SCT005 SCT150
     FM281900 04007KT P6SM SCT120 BKN180
     FM282200 06005KT P6SM VCSH FEW008 SCT025 OVC040 PROB30
      2823/0102 2SM -SN BR BKN025
     FM010200 08007KT 2SM -SN BR BKN006 OVC012
     FM010800 04006KT 4SM -SN BR SCT008 OVC015
     FM011400 08006KT P6SM VCSH SCT015 BKN025=

USA.gov is the U.S. government's official web portal to all federal, state and local government web resources and services.